KASE/ASE METAR and TAF weather

Enter ICAO airport designator
Station Type Date Time Source
KASE METAR 2019/12/09 05:53 UTC NOAA

KASE 090553Z AUTO VRB03KT 1 1/2SM -SN BR FEW008 OVC014 M02/M04 A2989 RMK AO2 SNB0459 SLP094 P0003 60009 T10171039 10006 21017 53010 $


Station Type Date Time Source
KASE Decoded METAR 2019/12/09 05:53 UTC NOAA

ASPEN-PITKIN COUNTY AIRPORT, CO, United States (KASE) 39-14N 106-52W 2354M
Dec 09, 2019 - 12:53 AM EST / 2019.12.09 0553 UTC
Wind: Variable at 3 MPH (3 KT):0
Visibility: 1 1/2 mile(s):0
Sky conditions: overcast
Weather: light snow; mist
Precipitation last hour: 0.03 inches
Temperature: 28.9 F (-1.7 C)
Dew Point: 25.0 F (-3.9 C)
Relative Humidity: 84%
Pressure (altimeter): 29.89 in. Hg (1012 hPa)
Pressure tendency: 0.03 inches (1.0 hPa) higher than three hours ago
ob: KASE 090553Z AUTO VRB03KT 1 1/2SM -SN BR FEW008 OVC014 M02/M04 A2989 RMK AO2 SNB0459 SLP094 P0003 60009 T10171039 10006 21017 53010
cycle: 6

Station Type Date Time Source
KASE TAF 2019/12/09 06:46 UTC NOAA

TAF KASE 090544Z 0906/1006 29003KT P6SM VCSH BKN013 OVC018
TEMPO 0906/0908 1SM -SHSN BR OVC010
FM091900 33006KT P6SM VCSH BKN016
FM092100 32006KT P6SM BKN050
FM100200 20005KT P6SM FEW060

Example: see airport list